Lewiston, Maine
Current Conditions -  °F | °C
As of 8:15 PM on Sunday 21 Dec 2014 (Local Time) from KLEW Reporting Station
Overcast Overcast  
Wind Chill: 25°   Ceiling: 7000
Heat Index: 25°   Visibility: 10mi
Dew Point: 21°   Wind: 0mph
Humidity: 86%   Direction: NA
Pressure: 30.35"   Gusts: NA
Location:  44.1°N, 70.22°W
Report Text: KLEW 220115Z AUTO 00000KT 10SM FEW042 OVC070 M04/M06 A3035 RMK AO1
Loading
Personal Weather Stations






























Interactive Weather Map New forecast layout! Learn more

10-Day Weather Forecast

Advertisements
Track Severe Weather on mobile